Time;durP1;ratioP1;P1;durP2;ratioP2;P2;SDS_P1;SDS_P2;PMS_P1;PMS_P2;Temp;Humidity;BMP_temperature;BMP_pressure;BME280_temperature;BME280_humidity;BME280_pressure;Samples;Min_cycle;Max_cycle;Signal;HPM_P1;HPM_P2
2022/05/15 00:00:37;;;;;;;;;;;;;;;;;;349760;28;1059;-79
2022/05/15 00:00:48;;;;;;;;;;;;;;;;;;349926;28;932;-79
2022/05/15 00:00:58;;;;;;;;;;;;;;;;;;349889;28;1095;-79
2022/05/15 00:01:08;;;;;;;;;;;;;;;;;;349972;28;897;-79
2022/05/15 00:01:19;;;;;;;;;;;;;;;;;;349887;28;960;-79
2022/05/15 00:01:30;;;;;;;;;;;;;;;;;;349890;28;817;-79
2022/05/15 00:01:40;;;;;;;;;;;;;;;;;;349953;28;845;-79
2022/05/15 00:01:50;;;;;;;;;;;;;;;;;;349891;28;850;-79
2022/05/15 00:02:00;;;;;;;;;;;;;;;;;;349916;28;1000;-79
2022/05/15 00:02:11;;;;;;;;;;;;;;;;;;349923;28;873;-79
2022/05/15 00:02:21;;;;;;;;;;;;;;;;;;349839;28;834;-79
2022/05/15 00:02:31;;;;;;;;;;;;;;;;;;349916;28;904;-79
2022/05/15 00:02:42;;;;;;;;;;;;;;;;;;349870;28;1037;-79
2022/05/15 00:02:52;;;;;;;;;;;;;;;;;;349915;28;1008;-79
2022/05/15 00:03:02;;;;;;;;;;;;;;;;;;349916;28;916;-79
2022/05/15 00:03:17;;;;;;;;;;;;;;;;;;349910;28;773;-79
2022/05/15 00:03:27;;;;;;;;;;;;;;;;;;349901;28;857;-80
2022/05/15 00:03:38;;;;;;;;;;;;;;;;;;349897;28;964;-79
2022/05/15 00:03:49;;;;;;;;;;;;;;;;;;349863;28;912;-79
2022/05/15 00:04:00;;;;;;;;;;;;;;;;;;349905;28;980;-79
2022/05/15 00:04:10;;;;;;;;;;;;;;;;;;349937;28;904;-79
2022/05/15 00:04:20;;;;;;;;;;;;;;;;;;349839;28;940;-79
2022/05/15 00:04:30;;;;;;;;;;;;;;;;;;349914;28;900;-79
2022/05/15 00:04:40;;;;;;;;;;;;;;;;;;349856;28;935;-79
2022/05/15 00:04:51;;;;;;;;;;;;;;;;;;349888;28;905;-79
2022/05/15 00:05:01;;;;;;;;;;;;;;;;;;349927;28;782;-79
2022/05/15 00:05:12;;;;;;;;;;;;;;;;;;349920;28;841;-79
2022/05/15 00:05:22;;;;;;;;;;;;;;;;;;349881;28;951;-79
2022/05/15 00:05:32;;;;;;;;;;;;;;;;;;349912;28;810;-79
2022/05/15 00:05:43;;;;;;;;;;;;;;;;;;349971;28;814;-79
2022/05/15 00:05:56;;;;;;;;;;;;;;;;;;349911;28;1043;-79
2022/05/15 00:06:06;;;;;;;;;;;;;;;;;;349914;28;925;-79
2022/05/15 00:06:16;;;;;;;;;;;;;;;;;;349965;28;936;-79
2022/05/15 00:06:26;;;;;;;;;;;;;;;;;;349875;28;909;-79
2022/05/15 00:06:37;;;;;;;;;;;;;;;;;;349900;28;971;-80
2022/05/15 00:06:47;;;;;;;;;;;;;;;;;;349869;28;936;-79
2022/05/15 00:06:57;;;;;;;;;;;;;;;;;;349838;28;953;-79
2022/05/15 00:07:07;;;;;;;;;;;;;;;;;;349912;28;837;-79
2022/05/15 00:07:18;;;;;;;;;;;;;;;;;;349796;28;1004;-79
2022/05/15 00:07:28;;;;;;;;;;;;;;;;;;349592;28;1555;-79
2022/05/15 00:07:39;;;;;;;;;;;;;;;;;;349843;28;1488;-79
2022/05/15 00:07:49;;;;;;;;;;;;;;;;;;349922;28;861;-79
2022/05/15 00:07:59;;;;;;;;;;;;;;;;;;349893;28;830;-79
2022/05/15 00:08:10;;;;;;;;;;;;;;;;;;349926;28;897;-79
2022/05/15 00:08:21;;;;;;;;;;;;;;;;;;349876;28;1039;-79
2022/05/15 00:08:32;;;;;;;;;;;;;;;;;;349868;28;805;-79
2022/05/15 00:08:43;;;;;;;;;;;;;;;;;;349923;28;1048;-79
2022/05/15 00:08:53;;;;;;;;;;;;;;;;;;349841;28;976;-79
2022/05/15 00:09:03;;;;;;;;;;;;;;;;;;349895;28;921;-79
2022/05/15 00:09:13;;;;;;;;;;;;;;;;;;349914;28;857;-79
2022/05/15 00:09:24;;;;;;;;;;;;;;;;;;349943;28;874;-79
2022/05/15 00:09:34;;;;;;;;;;;;;;;;;;348928;28;1410;-79
2022/05/15 00:09:44;;;;;;;;;;;;;;;;;;349913;28;908;-79
2022/05/15 00:09:54;;;;;;;;;;;;;;;;;;349927;28;909;-79
2022/05/15 00:10:06;;;;;;;;;;;;;;;;;;349878;28;1002;-79
2022/05/15 00:10:16;;;;;;;;;;;;;;;;;;349883;28;1050;-79
2022/05/15 00:10:26;;;;;;;;;;;;;;;;;;349936;28;861;-79
2022/05/15 00:10:37;;;;;;;;;;;;;;;;;;349885;28;901;-79
2022/05/15 00:10:48;;;;;;;;;;;;;;;;;;349899;28;928;-79
2022/05/15 00:10:59;;;;;;;;;;;;;;;;;;349871;28;983;-79
2022/05/15 00:11:11;;;;;;;;;;;;;;;;;;349851;28;2084;-79
2022/05/15 00:11:21;;;;;;;;;;;;;;;;;;349921;28;795;-79
2022/05/15 00:11:31;;;;;;;;;;;;;;;;;;349233;28;1354;-79
2022/05/15 00:11:42;;;;;;;;;;;;;;;;;;349867;28;800;-79
2022/05/15 00:11:52;;;;;;;;;;;;;;;;;;349877;28;1014;-79
2022/05/15 00:12:04;;;;;;;;;;;;;;;;;;349916;28;917;-79
2022/05/15 00:12:16;;;;;;;;;;;;;;;;;;349869;28;960;-79
2022/05/15 00:12:26;;;;;;;;;;;;;;;;;;349943;28;838;-79
2022/05/15 00:12:36;;;;;;;;;;;;;;;;;;349880;28;841;-79
2022/05/15 00:12:46;;;;;;;;;;;;;;;;;;349896;28;980;-79
2022/05/15 00:12:57;;;;;;;;;;;;;;;;;;349926;28;853;-79
2022/05/15 00:13:07;;;;;;;;;;;;;;;;;;349887;28;1075;-79
2022/05/15 00:13:18;;;;;;;;;;;;;;;;;;349940;28;933;-79
2022/05/15 00:13:29;;;;;;;;;;;;;;;;;;349841;28;904;-79
2022/05/15 00:13:40;;;;;;;;;;;;;;;;;;349958;28;959;-79
2022/05/15 00:13:50;;;;;;;;;;;;;;;;;;349893;28;889;-79
2022/05/15 00:14:02;;;;;;;;;;;;;;;;;;349860;28;972;-79
2022/05/15 00:14:13;;;;;;;;;;;;;;;;;;349741;28;1378;-79
2022/05/15 00:14:23;;;;;;;;;;;;;;;;;;349926;28;861;-79
2022/05/15 00:14:34;;;;;;;;;;;;;;;;;;349940;28;786;-79
2022/05/15 00:14:44;;;;;;;;;;;;;;;;;;349926;28;845;-79
2022/05/15 00:14:54;;;;;;;;;;;;;;;;;;349891;28;866;-79
2022/05/15 00:15:05;;;;;;;;;;;;;;;;;;349889;28;976;-79
2022/05/15 00:15:15;;;;;;;;;;;;;;;;;;349905;28;932;-79
2022/05/15 00:15:25;;;;;;;;;;;;;;;;;;349897;28;917;-79
2022/05/15 00:15:37;;;;;;;;;;;;;;;;;;349899;28;885;-79
2022/05/15 00:15:49;;;;;;;;;;;;;;;;;;349948;28;892;-79
2022/05/15 00:15:59;;;;;;;;;;;;;;;;;;349846;28;1212;-79
2022/05/15 00:16:09;;;;;;;;;;;;;;;;;;349987;28;857;-79
2022/05/15 00:16:19;;;;;;;;;;;;;;;;;;349887;28;846;-79
2022/05/15 00:16:31;;;;;;;;;;;;;;;;;;349940;28;849;-79
2022/05/15 00:16:41;;;;;;;;;;;;;;;;;;349873;28;1049;-79
2022/05/15 00:16:51;;;;;;;;;;;;;;;;;;349930;28;841;-79
2022/05/15 00:17:02;;;;;;;;;;;;;;;;;;349880;28;1017;-79
2022/05/15 00:17:12;;;;;;;;;;;;;;;;;;349820;28;1008;-79
2022/05/15 00:17:22;;;;;;;;;;;;;;;;;;349846;28;878;-79
2022/05/15 00:17:32;;;;;;;;;;;;;;;;;;349955;28;794;-79
2022/05/15 00:17:42;;;;;;;;;;;;;;;;;;349907;28;925;-79
2022/05/15 00:17:52;;;;;;;;;;;;;;;;;;349905;28;1035;-79
2022/05/15 00:18:03;;;;;;;;;;;;;;;;;;349891;28;822;-79
2022/05/15 00:18:13;;;;;;;;;;;;;;;;;;349948;28;794;-79
2022/05/15 00:18:24;;;;;;;;;;;;;;;;;;349944;28;917;-79
2022/05/15 00:18:35;;;;;;;;;;;;;;;;;;349910;28;928;-79
2022/05/15 00:18:46;;;;;;;;;;;;;;;;;;349861;28;988;-79
2022/05/15 00:18:56;;;;;;;;;;;;;;;;;;349948;28;786;-79
2022/05/15 00:19:06;;;;;;;;;;;;;;;;;;349933;28;925;-79
2022/05/15 00:19:17;;;;;;;;;;;;;;;;;;349809;28;802;-79
2022/05/15 00:19:27;;;;;;;;;;;;;;;;;;349948;28;941;-79
2022/05/15 00:19:37;;;;;;;;;;;;;;;;;;349024;28;1313;-79
2022/05/15 00:19:47;;;;;;;;;;;;;;;;;;349900;28;826;-79
2022/05/15 00:19:58;;;;;;;;;;;;;;;;;;349887;28;960;-79
2022/05/15 00:20:08;;;;;;;;;;;;;;;;;;349927;28;908;-79
2022/05/15 00:20:18;;;;;;;;;;;;;;;;;;349891;28;798;-79
2022/05/15 00:20:29;;;;;;;;;;;;;;;;;;349906;28;845;-79
2022/05/15 00:20:39;;;;;;;;;;;;;;;;;;349928;28;873;-79
2022/05/15 00:20:50;;;;;;;;;;;;;;;;;;349820;28;929;-79
2022/05/15 00:21:00;;;;;;;;;;;;;;;;;;349870;28;1008;-79
2022/05/15 00:21:11;;;;;;;;;;;;;;;;;;349899;28;814;-79
2022/05/15 00:21:21;;;;;;;;;;;;;;;;;;349824;28;901;-79
2022/05/15 00:21:32;;;;;;;;;;;;;;;;;;349907;28;904;-79
2022/05/15 00:21:42;;;;;;;;;;;;;;;;;;349919;28;912;-79
2022/05/15 00:21:53;;;;;;;;;;;;;;;;;;349834;28;830;-79
2022/05/15 00:22:03;;;;;;;;;;;;;;;;;;349913;28;996;-79
2022/05/15 00:22:13;;;;;;;;;;;;;;;;;;349896;28;912;-79
2022/05/15 00:22:25;;;;;;;;;;;;;;;;;;349889;28;888;-79
2022/05/15 00:22:35;;;;;;;;;;;;;;;;;;349908;28;939;-79
2022/05/15 00:22:45;;;;;;;;;;;;;;;;;;349867;28;919;-79
2022/05/15 00:22:56;;;;;;;;;;;;;;;;;;349846;28;929;-78
2022/05/15 00:23:07;;;;;;;;;;;;;;;;;;349962;28;921;-79
2022/05/15 00:23:18;;;;;;;;;;;;;;;;;;349910;28;924;-79
2022/05/15 00:23:29;;;;;;;;;;;;;;;;;;349878;28;967;-79
2022/05/15 00:23:39;;;;;;;;;;;;;;;;;;349902;28;928;-79
2022/05/15 00:23:49;;;;;;;;;;;;;;;;;;349841;28;913;-79
2022/05/15 00:23:59;;;;;;;;;;;;;;;;;;349897;28;992;-79
2022/05/15 00:24:10;;;;;;;;;;;;;;;;;;349896;28;881;-79
2022/05/15 00:24:20;;;;;;;;;;;;;;;;;;349756;28;1013;-79
2022/05/15 00:24:30;;;;;;;;;;;;;;;;;;349923;28;943;-79
2022/05/15 00:24:41;;;;;;;;;;;;;;;;;;349843;28;928;-79
2022/05/15 00:24:51;;;;;;;;;;;;;;;;;;349897;28;814;-79
2022/05/15 00:25:04;;;;;;;;;;;;;;;;;;349912;28;1021;-79
2022/05/15 00:25:14;;;;;;;;;;;;;;;;;;349906;28;932;-79
2022/05/15 00:25:25;;;;;;;;;;;;;;;;;;349842;28;901;-79
2022/05/15 00:25:35;;;;;;;;;;;;;;;;;;349831;28;1274;-79
2022/05/15 00:25:46;;;;;;;;;;;;;;;;;;349935;28;791;-79
2022/05/15 00:25:57;;;;;;;;;;;;;;;;;;349894;28;1128;-78
2022/05/15 00:26:07;;;;;;;;;;;;;;;;;;349816;28;1214;-79
2022/05/15 00:26:18;;;;;;;;;;;;;;;;;;349865;28;897;-78
2022/05/15 00:26:28;;;;;;;;;;;;;;;;;;349891;28;909;-79
2022/05/15 00:26:38;;;;;;;;;;;;;;;;;;349389;28;1306;-79
2022/05/15 00:26:49;;;;;;;;;;;;;;;;;;349489;28;1282;-79
2022/05/15 00:26:59;;;;;;;;;;;;;;;;;;349787;28;1589;-79
2022/05/15 00:27:09;;;;;;;;;;;;;;;;;;349861;28;992;-79
2022/05/15 00:27:19;;;;;;;;;;;;;;;;;;349816;28;1032;-79
2022/05/15 00:27:29;;;;;;;;;;;;;;;;;;349885;28;1071;-78
2022/05/15 00:27:40;;;;;;;;;;;;;;;;;;349825;28;940;-79
2022/05/15 00:27:50;;;;;;;;;;;;;;;;;;349956;28;924;-78
2022/05/15 00:28:00;;;;;;;;;;;;;;;;;;349873;28;770;-79
2022/05/15 00:28:10;;;;;;;;;;;;;;;;;;349860;28;960;-79
2022/05/15 00:28:20;;;;;;;;;;;;;;;;;;349910;28;916;-79
2022/05/15 00:28:31;;;;;;;;;;;;;;;;;;349903;28;798;-79
2022/05/15 00:28:41;;;;;;;;;;;;;;;;;;349902;28;925;-78
2022/05/15 00:28:51;;;;;;;;;;;;;;;;;;349759;28;1381;-79
2022/05/15 00:29:02;;;;;;;;;;;;;;;;;;349756;28;1586;-79
2022/05/15 00:29:12;;;;;;;;;;;;;;;;;;349893;28;1456;-79
2022/05/15 00:29:22;;;;;;;;;;;;;;;;;;349898;28;869;-78
2022/05/15 00:29:33;;;;;;;;;;;;;;;;;;349483;28;1348;-80
2022/05/15 00:29:43;;;;;;;;;;;;;;;;;;349210;28;1360;-78
2022/05/15 00:29:53;;;;;;;;;;;;;;;;;;349900;28;984;-78
2022/05/15 00:30:04;;;;;;;;;;;;;;;;;;349976;28;833;-78
2022/05/15 00:30:16;;;;;;;;;;;;;;;;;;349817;28;996;-79
2022/05/15 00:30:26;;;;;;;;;;;;;;;;;;349900;28;992;-78
2022/05/15 00:30:37;;;;;;;;;;;;;;;;;;349918;28;795;-78
2022/05/15 00:30:47;;;;;;;;;;;;;;;;;;349833;28;1101;-79
2022/05/15 00:30:57;;;;;;;;;;;;;;;;;;349904;28;857;-79
2022/05/15 00:31:08;;;;;;;;;;;;;;;;;;349748;28;1972;-79
2022/05/15 00:31:18;;;;;;;;;;;;;;;;;;349855;28;953;-78
2022/05/15 00:31:29;;;;;;;;;;;;;;;;;;349903;28;980;-78
2022/05/15 00:31:39;;;;;;;;;;;;;;;;;;349814;28;1032;-79
2022/05/15 00:31:50;;;;;;;;;;;;;;;;;;349899;28;782;-79
2022/05/15 00:32:00;;;;;;;;;;;;;;;;;;349819;28;916;-79
2022/05/15 00:32:10;;;;;;;;;;;;;;;;;;349898;28;771;-79
2022/05/15 00:32:20;;;;;;;;;;;;;;;;;;349876;28;912;-79
2022/05/15 00:32:32;;;;;;;;;;;;;;;;;;349867;28;983;-79
2022/05/15 00:32:42;;;;;;;;;;;;;;;;;;349823;28;1072;-79
2022/05/15 00:32:52;;;;;;;;;;;;;;;;;;349879;28;826;-79
2022/05/15 00:33:03;;;;;;;;;;;;;;;;;;349848;28;904;-79
2022/05/15 00:33:14;;;;;;;;;;;;;;;;;;349847;28;829;-79
2022/05/15 00:33:24;;;;;;;;;;;;;;;;;;349912;28;972;-79
2022/05/15 00:33:34;;;;;;;;;;;;;;;;;;349895;28;972;-79
2022/05/15 00:33:45;;;;;;;;;;;;;;;;;;349858;28;979;-79
2022/05/15 00:33:55;;;;;;;;;;;;;;;;;;349787;28;941;-79
2022/05/15 00:34:05;;;;;;;;;;;;;;;;;;349737;28;1012;-79
2022/05/15 00:34:15;;;;;;;;;;;;;;;;;;349872;28;920;-79
2022/05/15 00:34:25;;;;;;;;;;;;;;;;;;349837;28;961;-79
2022/05/15 00:34:36;;;;;;;;;;;;;;;;;;349826;28;998;-78
2022/05/15 00:34:46;;;;;;;;;;;;;;;;;;349898;28;846;-78
2022/05/15 00:34:56;;;;;;;;;;;;;;;;;;349871;28;905;-79
2022/05/15 00:35:07;;;;;;;;;;;;;;;;;;349830;28;1051;-79
2022/05/15 00:35:17;;;;;;;;;;;;;;;;;;349830;28;909;-79
2022/05/15 00:35:28;;;;;;;;;;;;;;;;;;349884;28;964;-80
2022/05/15 00:35:38;;;;;;;;;;;;;;;;;;349770;28;992;-79
2022/05/15 00:35:48;;;;;;;;;;;;;;;;;;349866;28;861;-79
2022/05/15 00:35:59;;;;;;;;;;;;;;;;;;349865;28;802;-79
2022/05/15 00:36:09;;;;;;;;;;;;;;;;;;349872;28;850;-78
2022/05/15 00:36:19;;;;;;;;;;;;;;;;;;349943;28;975;-79
2022/05/15 00:36:29;;;;;;;;;;;;;;;;;;350160;28;802;-79
2022/05/15 00:36:39;;;;;;;;;;;;;;;;;;350101;28;904;-78
2022/05/15 00:36:50;;;;;;;;;;;;;;;;;;349960;28;1206;-78
2022/05/15 00:37:00;;;;;;;;;;;;;;;;;;349989;28;854;-79
2022/05/15 00:37:10;;;;;;;;;;;;;;;;;;350019;28;897;-79
2022/05/15 00:37:20;;;;;;;;;;;;;;;;;;350003;28;977;-79
2022/05/15 00:37:31;;;;;;;;;;;;;;;;;;349297;28;1424;-78
2022/05/15 00:37:41;;;;;;;;;;;;;;;;;;350085;28;937;-79
2022/05/15 00:37:51;;;;;;;;;;;;;;;;;;349865;28;1008;-79
2022/05/15 00:38:02;;;;;;;;;;;;;;;;;;349967;28;913;-78
2022/05/15 00:38:14;;;;;;;;;;;;;;;;;;350048;28;904;-79
2022/05/15 00:38:24;;;;;;;;;;;;;;;;;;350032;28;933;-79
2022/05/15 00:38:34;;;;;;;;;;;;;;;;;;350042;28;913;-79
2022/05/15 00:38:44;;;;;;;;;;;;;;;;;;350020;28;882;-79
2022/05/15 00:38:55;;;;;;;;;;;;;;;;;;350150;28;908;-79
2022/05/15 00:39:06;;;;;;;;;;;;;;;;;;350093;28;1099;-79
2022/05/15 00:39:17;;;;;;;;;;;;;;;;;;350113;28;975;-79
2022/05/15 00:39:27;;;;;;;;;;;;;;;;;;349490;28;1432;-79
2022/05/15 00:39:37;;;;;;;;;;;;;;;;;;348590;28;1471;-79
2022/05/15 00:39:48;;;;;;;;;;;;;;;;;;348757;28;787;-79
2022/05/15 00:39:58;;;;;;;;;;;;;;;;;;348542;28;1242;-79
2022/05/15 00:40:08;;;;;;;;;;;;;;;;;;348683;28;854;-79
2022/05/15 00:40:20;;;;;;;;;;;;;;;;;;348827;28;785;-80
2022/05/15 00:40:30;;;;;;;;;;;;;;;;;;348738;28;845;-79
2022/05/15 00:40:42;;;;;;;;;;;;;;;;;;348760;28;842;-79
2022/05/15 00:40:52;;;;;;;;;;;;;;;;;;348784;28;861;-78
2022/05/15 00:41:03;;;;;;;;;;;;;;;;;;348720;28;838;-79
2022/05/15 00:41:13;;;;;;;;;;;;;;;;;;348749;28;916;-78
2022/05/15 00:41:24;;;;;;;;;;;;;;;;;;348440;28;1348;-79
2022/05/15 00:41:34;;;;;;;;;;;;;;;;;;350021;28;1011;-79
2022/05/15 00:41:45;;;;;;;;;;;;;;;;;;350098;28;920;-78
2022/05/15 00:41:55;;;;;;;;;;;;;;;;;;350225;28;770;-79
2022/05/15 00:42:09;;;;;;;;;;;;;;;;;;350135;28;920;-79
2022/05/15 00:42:19;;;;;;;;;;;;;;;;;;350113;28;909;-79
2022/05/15 00:42:30;;;;;;;;;;;;;;;;;;350080;28;924;-79
2022/05/15 00:42:40;;;;;;;;;;;;;;;;;;350187;28;1016;-79
2022/05/15 00:42:51;;;;;;;;;;;;;;;;;;350144;28;904;-78
2022/05/15 00:43:01;;;;;;;;;;;;;;;;;;350136;28;968;-79
2022/05/15 00:43:12;;;;;;;;;;;;;;;;;;350120;28;778;-80
2022/05/15 00:43:38;;;;;;;;;;;;;;;;;;350093;28;897;-79
2022/05/15 00:43:50;;;;;;;;;;;;;;;;;;350145;28;909;-79
2022/05/15 00:44:00;;;;;;;;;;;;;;;;;;350062;28;1174;-79
2022/05/15 00:44:11;;;;;;;;;;;;;;;;;;350120;28;920;-79
2022/05/15 00:44:22;;;;;;;;;;;;;;;;;;350116;28;832;-79
2022/05/15 00:44:32;;;;;;;;;;;;;;;;;;350130;28;929;-80
2022/05/15 00:44:42;;;;;;;;;;;;;;;;;;350114;28;889;-79
2022/05/15 00:44:53;;;;;;;;;;;;;;;;;;350092;28;1063;-79
2022/05/15 00:45:04;;;;;;;;;;;;;;;;;;350117;28;955;-79
2022/05/15 00:45:15;;;;;;;;;;;;;;;;;;350154;28;904;-79
2022/05/15 00:45:25;;;;;;;;;;;;;;;;;;350138;28;974;-79
2022/05/15 00:45:36;;;;;;;;;;;;;;;;;;350150;28;920;-79
2022/05/15 00:45:46;;;;;;;;;;;;;;;;;;350141;28;892;-79
2022/05/15 00:45:56;;;;;;;;;;;;;;;;;;350126;28;1020;-79
2022/05/15 00:46:08;;;;;;;;;;;;;;;;;;349957;28;1023;-79
2022/05/15 00:46:23;;;;;;;;;;;;;;;;;;350100;28;795;-78
2022/05/15 00:46:36;;;;;;;;;;;;;;;;;;350203;28;975;-79
2022/05/15 00:46:46;;;;;;;;;;;;;;;;;;350074;28;1119;-79
2022/05/15 00:46:56;;;;;;;;;;;;;;;;;;350139;28;987;-79
2022/05/15 00:47:06;;;;;;;;;;;;;;;;;;350141;28;849;-79
2022/05/15 00:47:17;;;;;;;;;;;;;;;;;;349956;28;1018;-79
2022/05/15 00:47:28;;;;;;;;;;;;;;;;;;350084;28;976;-78
2022/05/15 00:47:38;;;;;;;;;;;;;;;;;;350141;28;975;-79
2022/05/15 00:47:48;;;;;;;;;;;;;;;;;;350175;28;786;-79
2022/05/15 00:47:58;;;;;;;;;;;;;;;;;;350152;28;923;-79
2022/05/15 00:48:09;;;;;;;;;;;;;;;;;;349982;28;1002;-79
2022/05/15 00:48:19;;;;;;;;;;;;;;;;;;350010;28;920;-79
2022/05/15 00:48:29;;;;;;;;;;;;;;;;;;350120;28;988;-79
2022/05/15 00:48:40;;;;;;;;;;;;;;;;;;350120;28;1008;-79
2022/05/15 00:48:51;;;;;;;;;;;;;;;;;;350116;28;888;-79
2022/05/15 00:49:03;;;;;;;;;;;;;;;;;;350153;28;920;-79
2022/05/15 00:49:13;;;;;;;;;;;;;;;;;;350151;28;960;-79
2022/05/15 00:49:24;;;;;;;;;;;;;;;;;;350054;28;794;-79
2022/05/15 00:49:34;;;;;;;;;;;;;;;;;;349164;28;1275;-79
2022/05/15 00:49:45;;;;;;;;;;;;;;;;;;350112;28;999;-79
2022/05/15 00:49:56;;;;;;;;;;;;;;;;;;350197;28;983;-79
2022/05/15 00:50:09;;;;;;;;;;;;;;;;;;350037;28;932;-79
2022/05/15 00:50:25;;;;;;;;;;;;;;;;;;350143;28;892;-79
2022/05/15 00:50:37;;;;;;;;;;;;;;;;;;350113;28;987;-79
2022/05/15 00:50:47;;;;;;;;;;;;;;;;;;350114;28;890;-79
2022/05/15 00:51:00;;;;;;;;;;;;;;;;;;350152;28;995;-79
2022/05/15 00:51:29;;;;;;;;;;;;;;;;;;350089;28;1901;-79
2022/05/15 00:51:47;;;;;;;;;;;;;;;;;;350146;28;1832;-79
2022/05/15 00:52:04;;;;;;;;;;;;;;;;;;350131;28;908;-79
2022/05/15 00:52:16;;;;;;;;;;;;;;;;;;350074;28;971;-79
2022/05/15 00:52:27;;;;;;;;;;;;;;;;;;350104;28;782;-79
2022/05/15 00:52:38;;;;;;;;;;;;;;;;;;350107;28;895;-79
2022/05/15 00:52:51;;;;;;;;;;;;;;;;;;350126;28;891;-79
2022/05/15 00:53:09;;;;;;;;;;;;;;;;;;350153;28;968;-79
2022/05/15 00:53:20;;;;;;;;;;;;;;;;;;350119;28;865;-79
2022/05/15 00:53:32;;;;;;;;;;;;;;;;;;350162;28;849;-79
2022/05/15 00:53:42;;;;;;;;;;;;;;;;;;350124;28;971;-79
2022/05/15 00:53:56;;;;;;;;;;;;;;;;;;350157;28;921;-79
2022/05/15 00:54:18;;;;;;;;;;;;;;;;;;350146;28;999;-78
2022/05/15 00:54:39;;;;;;;;;;;;;;;;;;350085;28;1007;-79
2022/05/15 00:54:51;;;;;;;;;;;;;;;;;;350152;28;877;-79
2022/05/15 00:55:09;;;;;;;;;;;;;;;;;;350126;28;962;-79
2022/05/15 00:55:22;;;;;;;;;;;;;;;;;;350040;28;964;-79
2022/05/15 00:55:46;;;;;;;;;;;;;;;;;;350156;28;908;-79
2022/05/15 00:55:59;;;;;;;;;;;;;;;;;;350055;28;920;-79
2022/05/15 00:56:10;;;;;;;;;;;;;;;;;;350130;28;896;-79
2022/05/15 00:56:23;;;;;;;;;;;;;;;;;;350132;28;991;-79
2022/05/15 00:56:36;;;;;;;;;;;;;;;;;;350072;28;940;-79
2022/05/15 00:56:49;;;;;;;;;;;;;;;;;;350047;28;995;-79
2022/05/15 00:57:07;;;;;;;;;;;;;;;;;;350106;28;924;-79
2022/05/15 00:57:18;;;;;;;;;;;;;;;;;;350095;28;933;-79
2022/05/15 00:57:31;;;;;;;;;;;;;;;;;;350065;28;1213;-79
2022/05/15 00:57:44;;;;;;;;;;;;;;;;;;350156;28;956;-79
2022/05/15 00:57:58;;;;;;;;;;;;;;;;;;350087;28;976;-79
2022/05/15 00:58:17;;;;;;;;;;;;;;;;;;350115;28;998;-79
2022/05/15 00:58:37;;;;;;;;;;;;;;;;;;350093;28;983;-78
2022/05/15 00:58:50;;;;;;;;;;;;;;;;;;350077;28;960;-78
2022/05/15 00:59:02;;;;;;;;;;;;;;;;;;349813;28;1563;-79
2022/05/15 00:59:15;;;;;;;;;;;;;;;;;;350021;28;1672;-79
2022/05/15 00:59:28;;;;;;;;;;;;;;;;;;349911;28;1460;-80
2022/05/15 00:59:51;;;;;;;;;;;;;;;;;;349381;28;1311;-79
2022/05/15 01:00:04;;;;;;;;;;;;;;;;;;348648;28;1032;-78
2022/05/15 01:00:23;;;;;;;;;;;;;;;;;;348682;28;921;-79
2022/05/15 01:00:34;;;;;;;;;;;;;;;;;;348683;28;904;-79
2022/05/15 01:00:44;;;;;;;;;;;;;;;;;;348731;28;925;-78
2022/05/15 01:00:55;;;;;;;;;;;;;;;;;;349186;28;1551;-79
2022/05/15 01:01:05;;;;;;;;;;;;;;;;;;350112;28;968;-79
2022/05/15 01:01:17;;;;;;;;;;;;;;;;;;350065;28;1039;-79
2022/05/15 01:01:27;;;;;;;;;;;;;;;;;;350171;28;920;-79
2022/05/15 01:01:37;;;;;;;;;;;;;;;;;;350026;28;837;-79
2022/05/15 01:01:48;;;;;;;;;;;;;;;;;;350121;28;936;-79
2022/05/15 01:01:58;;;;;;;;;;;;;;;;;;350056;28;798;-79
2022/05/15 01:02:09;;;;;;;;;;;;;;;;;;350090;28;924;-79
2022/05/15 01:02:20;;;;;;;;;;;;;;;;;;350086;28;836;-79
2022/05/15 01:02:33;;;;;;;;;;;;;;;;;;350113;28;912;-79
2022/05/15 01:02:46;;;;;;;;;;;;;;;;;;350093;28;943;-79
2022/05/15 01:03:08;;;;;;;;;;;;;;;;;;350132;28;940;-78
2022/05/15 01:03:19;;;;;;;;;;;;;;;;;;349993;28;936;-79
2022/05/15 01:03:30;;;;;;;;;;;;;;;;;;349920;28;1120;-79
2022/05/15 01:03:42;;;;;;;;;;;;;;;;;;350078;28;965;-79
2022/05/15 01:03:52;;;;;;;;;;;;;;;;;;350198;28;892;-79
2022/05/15 01:04:02;;;;;;;;;;;;;;;;;;350108;28;992;-78
2022/05/15 01:04:12;;;;;;;;;;;;;;;;;;350060;28;857;-79
2022/05/15 01:04:22;;;;;;;;;;;;;;;;;;350103;28;881;-79
2022/05/15 01:04:33;;;;;;;;;;;;;;;;;;350137;28;765;-79
2022/05/15 01:04:43;;;;;;;;;;;;;;;;;;350105;28;1167;-79
2022/05/15 01:04:54;;;;;;;;;;;;;;;;;;350103;28;1028;-79
2022/05/15 01:05:05;;;;;;;;;;;;;;;;;;349996;28;912;-79
2022/05/15 01:05:15;;;;;;;;;;;;;;;;;;350107;28;964;-79
2022/05/15 01:05:26;;;;;;;;;;;;;;;;;;350109;28;872;-79
2022/05/15 01:05:38;;;;;;;;;;;;;;;;;;350100;28;968;-79
2022/05/15 01:05:51;;;;;;;;;;;;;;;;;;350080;28;924;-79
2022/05/15 01:06:01;;;;;;;;;;;;;;;;;;350138;28;857;-78
2022/05/15 01:06:11;;;;;;;;;;;;;;;;;;350096;28;924;-79
2022/05/15 01:06:21;;;;;;;;;;;;;;;;;;350037;28;1031;-79
2022/05/15 01:06:35;;;;;;;;;;;;;;;;;;350097;28;909;-79
2022/05/15 01:06:45;;;;;;;;;;;;;;;;;;350048;28;775;-79
2022/05/15 01:06:55;;;;;;;;;;;;;;;;;;350056;28;984;-80
2022/05/15 01:07:06;;;;;;;;;;;;;;;;;;350071;28;933;-79
2022/05/15 01:07:16;;;;;;;;;;;;;;;;;;350092;28;810;-79
2022/05/15 01:07:26;;;;;;;;;;;;;;;;;;350054;28;885;-79
2022/05/15 01:07:36;;;;;;;;;;;;;;;;;;350106;28;779;-79
2022/05/15 01:07:46;;;;;;;;;;;;;;;;;;350019;28;968;-78
2022/05/15 01:07:57;;;;;;;;;;;;;;;;;;350082;28;857;-79
2022/05/15 01:08:07;;;;;;;;;;;;;;;;;;350080;28;984;-79
2022/05/15 01:08:18;;;;;;;;;;;;;;;;;;350147;28;936;-79
2022/05/15 01:08:29;;;;;;;;;;;;;;;;;;350067;28;1008;-79
2022/05/15 01:08:39;;;;;;;;;;;;;;;;;;350056;28;880;-78
2022/05/15 01:08:49;;;;;;;;;;;;;;;;;;350099;28;841;-79
2022/05/15 01:09:00;;;;;;;;;;;;;;;;;;350093;28;937;-78
2022/05/15 01:09:12;;;;;;;;;;;;;;;;;;350097;28;964;-79
2022/05/15 01:09:22;;;;;;;;;;;;;;;;;;350060;28;916;-79
2022/05/15 01:09:33;;;;;;;;;;;;;;;;;;350034;28;993;-78
2022/05/15 01:09:43;;;;;;;;;;;;;;;;;;348964;28;1455;-79
2022/05/15 01:09:53;;;;;;;;;;;;;;;;;;348695;28;1087;-79
2022/05/15 01:10:04;;;;;;;;;;;;;;;;;;348633;28;917;-79
2022/05/15 01:10:15;;;;;;;;;;;;;;;;;;348633;28;1079;-78
2022/05/15 01:10:25;;;;;;;;;;;;;;;;;;348703;28;933;-79
2022/05/15 01:10:38;;;;;;;;;;;;;;;;;;348734;28;976;-79
2022/05/15 01:10:50;;;;;;;;;;;;;;;;;;348629;28;941;-79
2022/05/15 01:11:05;;;;;;;;;;;;;;;;;;348762;28;983;-78
2022/05/15 01:11:18;;;;;;;;;;;;;;;;;;348674;28;881;-79
2022/05/15 01:11:28;;;;;;;;;;;;;;;;;;348707;28;802;-79
2022/05/15 01:11:39;;;;;;;;;;;;;;;;;;348719;28;929;-79
2022/05/15 01:11:50;;;;;;;;;;;;;;;;;;348635;28;976;-79
2022/05/15 01:12:03;;;;;;;;;;;;;;;;;;348678;28;1011;-79
2022/05/15 01:12:13;;;;;;;;;;;;;;;;;;348698;28;968;-79
2022/05/15 01:12:24;;;;;;;;;;;;;;;;;;348655;28;989;-79
2022/05/15 01:12:35;;;;;;;;;;;;;;;;;;348700;28;929;-78
2022/05/15 01:12:48;;;;;;;;;;;;;;;;;;348652;28;1016;-79
2022/05/15 01:12:58;;;;;;;;;;;;;;;;;;348694;28;774;-79
2022/05/15 01:13:10;;;;;;;;;;;;;;;;;;348746;28;806;-79
2022/05/15 01:13:22;;;;;;;;;;;;;;;;;;348644;28;1031;-79
2022/05/15 01:13:34;;;;;;;;;;;;;;;;;;348670;28;869;-79
2022/05/15 01:13:45;;;;;;;;;;;;;;;;;;348704;28;874;-79
2022/05/15 01:13:56;;;;;;;;;;;;;;;;;;348654;28;921;-79
2022/05/15 01:14:08;;;;;;;;;;;;;;;;;;348700;28;945;-79
2022/05/15 01:14:19;;;;;;;;;;;;;;;;;;348674;28;987;-79
2022/05/15 01:14:31;;;;;;;;;;;;;;;;;;348690;28;965;-78
2022/05/15 01:14:43;;;;;;;;;;;;;;;;;;348750;28;880;-79
2022/05/15 01:14:53;;;;;;;;;;;;;;;;;;348707;28;837;-79
2022/05/15 01:15:04;;;;;;;;;;;;;;;;;;348680;28;1024;-79
2022/05/15 01:15:17;;;;;;;;;;;;;;;;;;348706;28;976;-79
2022/05/15 01:15:28;;;;;;;;;;;;;;;;;;348594;28;1008;-79
2022/05/15 01:15:39;;;;;;;;;;;;;;;;;;348771;28;873;-79
2022/05/15 01:15:49;;;;;;;;;;;;;;;;;;348711;28;948;-78
2022/05/15 01:16:00;;;;;;;;;;;;;;;;;;348706;28;968;-79
2022/05/15 01:16:11;;;;;;;;;;;;;;;;;;348723;28;1008;-78
2022/05/15 01:16:23;;;;;;;;;;;;;;;;;;348692;28;794;-79
2022/05/15 01:16:34;;;;;;;;;;;;;;;;;;348604;28;784;-79
2022/05/15 01:16:44;;;;;;;;;;;;;;;;;;348729;28;881;-79
2022/05/15 01:16:54;;;;;;;;;;;;;;;;;;348678;28;853;-79
2022/05/15 01:17:05;;;;;;;;;;;;;;;;;;348705;28;925;-78
2022/05/15 01:17:15;;;;;;;;;;;;;;;;;;348664;28;850;-79
2022/05/15 01:17:25;;;;;;;;;;;;;;;;;;348675;28;999;-79
2022/05/15 01:17:35;;;;;;;;;;;;;;;;;;348469;28;1164;-79
2022/05/15 01:17:46;;;;;;;;;;;;;;;;;;348511;28;1202;-79
2022/05/15 01:17:56;;;;;;;;;;;;;;;;;;348641;28;853;-79
2022/05/15 01:18:08;;;;;;;;;;;;;;;;;;348746;28;968;-79
2022/05/15 01:18:26;;;;;;;;;;;;;;;;;;348712;28;944;-79
2022/05/15 01:18:37;;;;;;;;;;;;;;;;;;348671;28;960;-79
2022/05/15 01:18:47;;;;;;;;;;;;;;;;;;348671;28;903;-79
2022/05/15 01:18:59;;;;;;;;;;;;;;;;;;348630;28;1040;-79
2022/05/15 01:19:09;;;;;;;;;;;;;;;;;;348680;28;842;-79
2022/05/15 01:19:29;;;;;;;;;;;;;;;;;;348541;28;1169;-79
2022/05/15 01:19:40;;;;;;;;;;;;;;;;;;348570;28;873;-79
2022/05/15 01:19:50;;;;;;;;;;;;;;;;;;348316;28;1512;-79
2022/05/15 01:20:03;;;;;;;;;;;;;;;;;;348594;28;841;-79
2022/05/15 01:20:16;;;;;;;;;;;;;;;;;;348539;28;1576;-79
2022/05/15 01:20:27;;;;;;;;;;;;;;;;;;348541;28;964;-79
2022/05/15 01:20:39;;;;;;;;;;;;;;;;;;348654;28;849;-79